sensor_id;sensor_type;location;lat;lon;timestamp;temperature;humidity
74822;DHT22;63353;48.702;8.884;2023-04-06T00:00:00;-1.60;99.90
74822;DHT22;63353;48.702;8.884;2023-04-06T00:05:32;-1.70;99.90
74822;DHT22;63353;48.702;8.884;2023-04-06T00:08:00;-1.70;99.90
74822;DHT22;63353;48.702;8.884;2023-04-06T00:10:32;-1.70;99.90
74822;DHT22;63353;48.702;8.884;2023-04-06T00:12:58;-1.70;99.90
74822;DHT22;63353;48.702;8.884;2023-04-06T00:15:25;-1.80;99.90
74822;DHT22;63353;48.702;8.884;2023-04-06T00:17:53;-1.80;99.90
74822;DHT22;63353;48.702;8.884;2023-04-06T00:20:31;-1.80;99.90
74822;DHT22;63353;48.702;8.884;2023-04-06T00:22:57;-1.80;99.90
74822;DHT22;63353;48.702;8.884;2023-04-06T00:25:22;-1.90;99.90
74822;DHT22;63353;48.702;8.884;2023-04-06T00:27:51;-1.90;99.90
74822;DHT22;63353;48.702;8.884;2023-04-06T00:30:17;-1.90;99.90
74822;DHT22;63353;48.702;8.884;2023-04-06T00:32:42;-1.90;99.90
74822;DHT22;63353;48.702;8.884;2023-04-06T00:35:16;-1.90;99.90
74822;DHT22;63353;48.702;8.884;2023-04-06T00:37:54;-1.90;99.90
74822;DHT22;63353;48.702;8.884;2023-04-06T00:40:23;-2.00;99.90
74822;DHT22;63353;48.702;8.884;2023-04-06T00:42:49;-1.90;99.90
74822;DHT22;63353;48.702;8.884;2023-04-06T00:45:15;-2.00;99.90
74822;DHT22;63353;48.702;8.884;2023-04-06T00:47:46;-2.00;99.90
74822;DHT22;63353;48.702;8.884;2023-04-06T00:50:15;-2.00;99.90
74822;DHT22;63353;48.702;8.884;2023-04-06T00:52:45;-2.00;99.90
74822;DHT22;63353;48.702;8.884;2023-04-06T00:55:17;-2.10;99.90
74822;DHT22;63353;48.702;8.884;2023-04-06T00:57:43;-2.10;99.90
74822;DHT22;63353;48.702;8.884;2023-04-06T01:00:12;-2.10;99.90
74822;DHT22;63353;48.702;8.884;2023-04-06T01:02:50;-2.10;99.90
74822;DHT22;63353;48.702;8.884;2023-04-06T01:05:16;-2.20;99.90
74822;DHT22;63353;48.702;8.884;2023-04-06T01:07:42;-2.20;99.90
74822;DHT22;63353;48.702;8.884;2023-04-06T01:13:05;-2.40;99.90
74822;DHT22;63353;48.702;8.884;2023-04-06T01:15:32;-2.50;99.90
74822;DHT22;63353;48.702;8.884;2023-04-06T01:17:59;-2.60;99.90
74822;DHT22;63353;48.702;8.884;2023-04-06T01:20:30;-2.60;99.90
74822;DHT22;63353;48.702;8.884;2023-04-06T01:23:02;-2.50;99.90
74822;DHT22;63353;48.702;8.884;2023-04-06T01:25:27;-2.30;99.90
74822;DHT22;63353;48.702;8.884;2023-04-06T01:27:53;-2.30;99.90
74822;DHT22;63353;48.702;8.884;2023-04-06T01:30:19;-2.30;99.90
74822;DHT22;63353;48.702;8.884;2023-04-06T01:32:57;-2.40;99.90
74822;DHT22;63353;48.702;8.884;2023-04-06T01:35:31;-2.50;99.90
74822;DHT22;63353;48.702;8.884;2023-04-06T01:37:56;-2.50;99.90
74822;DHT22;63353;48.702;8.884;2023-04-06T01:40:22;-2.50;99.90
74822;DHT22;63353;48.702;8.884;2023-04-06T01:42:47;-2.50;99.90
74822;DHT22;63353;48.702;8.884;2023-04-06T01:45:25;-2.50;99.90
74822;DHT22;63353;48.702;8.884;2023-04-06T01:47:57;-2.40;99.90
74822;DHT22;63353;48.702;8.884;2023-04-06T01:50:24;-2.40;99.90
74822;DHT22;63353;48.702;8.884;2023-04-06T01:52:53;-2.50;99.90
74822;DHT22;63353;48.702;8.884;2023-04-06T01:55:19;-2.40;99.90
74822;DHT22;63353;48.702;8.884;2023-04-06T01:57:59;-2.40;99.90
74822;DHT22;63353;48.702;8.884;2023-04-06T02:00:31;-2.40;99.90
74822;DHT22;63353;48.702;8.884;2023-04-06T02:02:57;-2.50;99.90
74822;DHT22;63353;48.702;8.884;2023-04-06T02:05:23;-2.60;99.90
74822;DHT22;63353;48.702;8.884;2023-04-06T02:07:48;-2.60;99.90
74822;DHT22;63353;48.702;8.884;2023-04-06T02:10:20;-2.60;99.90
74822;DHT22;63353;48.702;8.884;2023-04-06T02:12:46;-2.70;99.90
74822;DHT22;63353;48.702;8.884;2023-04-06T02:15:33;-2.80;99.90
74822;DHT22;63353;48.702;8.884;2023-04-06T02:17:59;-2.90;99.90
74822;DHT22;63353;48.702;8.884;2023-04-06T02:20:34;-2.90;99.90
74822;DHT22;63353;48.702;8.884;2023-04-06T02:23:03;-3.00;99.90
74822;DHT22;63353;48.702;8.884;2023-04-06T02:25:34;-3.00;99.90
74822;DHT22;63353;48.702;8.884;2023-04-06T02:28:19;-3.00;99.90
74822;DHT22;63353;48.702;8.884;2023-04-06T02:30:44;-3.10;99.90
74822;DHT22;63353;48.702;8.884;2023-04-06T02:33:22;-3.10;99.90
74822;DHT22;63353;48.702;8.884;2023-04-06T02:35:51;-3.10;99.90
74822;DHT22;63353;48.702;8.884;2023-04-06T02:38:19;-3.10;99.90
74822;DHT22;63353;48.702;8.884;2023-04-06T02:40:51;-3.10;99.90
74822;DHT22;63353;48.702;8.884;2023-04-06T02:43:28;-2.90;99.90
74822;DHT22;63353;48.702;8.884;2023-04-06T02:45:54;-2.80;99.90
74822;DHT22;63353;48.702;8.884;2023-04-06T02:48:26;-2.60;99.90
74822;DHT22;63353;48.702;8.884;2023-04-06T02:51:01;-2.60;99.90
74822;DHT22;63353;48.702;8.884;2023-04-06T02:53:27;-2.60;99.90
74822;DHT22;63353;48.702;8.884;2023-04-06T02:55:56;-2.60;99.90
74822;DHT22;63353;48.702;8.884;2023-04-06T02:58:24;-2.70;99.90
74822;DHT22;63353;48.702;8.884;2023-04-06T03:00:50;-2.80;99.90
74822;DHT22;63353;48.702;8.884;2023-04-06T03:03:18;-2.80;99.90
74822;DHT22;63353;48.702;8.884;2023-04-06T03:05:53;-2.90;99.90
74822;DHT22;63353;48.702;8.884;2023-04-06T03:08:31;-2.90;99.90
74822;DHT22;63353;48.702;8.884;2023-04-06T03:10:57;-3.00;99.90
74822;DHT22;63353;48.702;8.884;2023-04-06T03:13:29;-3.00;99.90
74822;DHT22;63353;48.702;8.884;2023-04-06T03:15:58;-2.90;99.90
74822;DHT22;63353;48.702;8.884;2023-04-06T03:18:26;-2.90;99.90
74822;DHT22;63353;48.702;8.884;2023-04-06T03:20:52;-3.00;99.90
74822;DHT22;63353;48.702;8.884;2023-04-06T03:23:38;-3.00;99.90
74822;DHT22;63353;48.702;8.884;2023-04-06T03:26:04;-3.00;99.90
74822;DHT22;63353;48.702;8.884;2023-04-06T03:28:32;-3.00;99.90
74822;DHT22;63353;48.702;8.884;2023-04-06T03:31:01;-3.00;99.90
74822;DHT22;63353;48.702;8.884;2023-04-06T03:33:30;-3.10;99.90
74822;DHT22;63353;48.702;8.884;2023-04-06T03:36:02;-3.10;99.90
74822;DHT22;63353;48.702;8.884;2023-04-06T03:38:27;-3.20;99.90
74822;DHT22;63353;48.702;8.884;2023-04-06T03:40:56;-3.20;99.90
74822;DHT22;63353;48.702;8.884;2023-04-06T03:43:21;-3.20;99.90
74822;DHT22;63353;48.702;8.884;2023-04-06T03:45:47;-3.20;99.90
74822;DHT22;63353;48.702;8.884;2023-04-06T03:48:20;-3.20;99.90
74822;DHT22;63353;48.702;8.884;2023-04-06T03:50:45;-3.20;99.90
74822;DHT22;63353;48.702;8.884;2023-04-06T03:53:14;-3.20;99.90
74822;DHT22;63353;48.702;8.884;2023-04-06T03:55:54;-3.20;99.90
74822;DHT22;63353;48.702;8.884;2023-04-06T03:58:20;-3.20;99.90
74822;DHT22;63353;48.702;8.884;2023-04-06T04:00:58;-3.20;99.90
74822;DHT22;63353;48.702;8.884;2023-04-06T04:03:23;-3.30;99.90
74822;DHT22;63353;48.702;8.884;2023-04-06T04:05:54;-3.30;99.90
74822;DHT22;63353;48.702;8.884;2023-04-06T04:08:24;-3.30;99.90
74822;DHT22;63353;48.702;8.884;2023-04-06T04:10:49;-3.40;99.90
74822;DHT22;63353;48.702;8.884;2023-04-06T04:13:16;-3.40;99.90
74822;DHT22;63353;48.702;8.884;2023-04-06T04:15:54;-3.60;99.90
74822;DHT22;63353;48.702;8.884;2023-04-06T04:18:24;-3.50;99.90
74822;DHT22;63353;48.702;8.884;2023-04-06T04:20:55;-3.60;99.90
74822;DHT22;63353;48.702;8.884;2023-04-06T04:23:21;-3.60;99.90
74822;DHT22;63353;48.702;8.884;2023-04-06T04:25:59;-3.60;99.90
74822;DHT22;63353;48.702;8.884;2023-04-06T04:28:33;-3.50;99.90
74822;DHT22;63353;48.702;8.884;2023-04-06T04:30:59;-3.40;99.90
74822;DHT22;63353;48.702;8.884;2023-04-06T04:33:24;-3.40;99.90
74822;DHT22;63353;48.702;8.884;2023-04-06T04:35:50;-3.40;99.90
74822;DHT22;63353;48.702;8.884;2023-04-06T04:38:28;-3.50;99.90
74822;DHT22;63353;48.702;8.884;2023-04-06T04:40:57;-3.50;99.90
74822;DHT22;63353;48.702;8.884;2023-04-06T04:43:26;-3.50;99.90
74822;DHT22;63353;48.702;8.884;2023-04-06T04:45:51;-3.60;99.90
74822;DHT22;63353;48.702;8.884;2023-04-06T04:48:17;-3.70;99.90
74822;DHT22;63353;48.702;8.884;2023-04-06T04:50:55;-3.70;99.90
74822;DHT22;63353;48.702;8.884;2023-04-06T04:53:20;-3.70;99.90
74822;DHT22;63353;48.702;8.884;2023-04-06T04:55:52;-3.70;99.90
74822;DHT22;63353;48.702;8.884;2023-04-06T04:58:18;-3.80;99.90
74822;DHT22;63353;48.702;8.884;2023-04-06T05:01:00;-3.80;99.90
74822;DHT22;63353;48.702;8.884;2023-04-06T05:03:26;-3.90;99.90
74822;DHT22;63353;48.702;8.884;2023-04-06T05:05:58;-3.80;99.90
74822;DHT22;63353;48.702;8.884;2023-04-06T05:08:24;-3.80;99.90
74822;DHT22;63353;48.702;8.884;2023-04-06T05:10:49;-3.70;99.90
74822;DHT22;63353;48.702;8.884;2023-04-06T05:13:16;-3.70;99.90
74822;DHT22;63353;48.702;8.884;2023-04-06T05:15:42;-3.60;99.90
74822;DHT22;63353;48.702;8.884;2023-04-06T05:18:08;-3.60;99.90
74822;DHT22;63353;48.702;8.884;2023-04-06T05:20:35;-3.60;99.90
74822;DHT22;63353;48.702;8.884;2023-04-06T05:23:01;-3.50;99.90
74822;DHT22;63353;48.702;8.884;2023-04-06T05:25:30;-3.50;99.90
74822;DHT22;63353;48.702;8.884;2023-04-06T05:27:56;-3.40;99.90
74822;DHT22;63353;48.702;8.884;2023-04-06T05:30:27;-3.30;99.90
74822;DHT22;63353;48.702;8.884;2023-04-06T05:33:02;-3.20;99.90
74822;DHT22;63353;48.702;8.884;2023-04-06T05:35:31;-3.10;99.90
74822;DHT22;63353;48.702;8.884;2023-04-06T05:37:59;-3.00;99.90
74822;DHT22;63353;48.702;8.884;2023-04-06T05:40:28;-3.00;99.90
74822;DHT22;63353;48.702;8.884;2023-04-06T05:42:54;-2.90;99.90
74822;DHT22;63353;48.702;8.884;2023-04-06T05:45:31;-2.90;99.90
74822;DHT22;63353;48.702;8.884;2023-04-06T05:47:57;-2.80;99.90
74822;DHT22;63353;48.702;8.884;2023-04-06T05:50:26;-2.70;99.90
74822;DHT22;63353;48.702;8.884;2023-04-06T05:53:04;-2.60;99.90
74822;DHT22;63353;48.702;8.884;2023-04-06T05:55:29;-2.40;99.90
74822;DHT22;63353;48.702;8.884;2023-04-06T05:57:58;-2.40;99.90
74822;DHT22;63353;48.702;8.884;2023-04-06T06:00:24;-2.30;99.90
74822;DHT22;63353;48.702;8.884;2023-04-06T06:02:49;-2.10;99.90
74822;DHT22;63353;48.702;8.884;2023-04-06T06:05:15;-2.00;99.90
74822;DHT22;63353;48.702;8.884;2023-04-06T06:07:44;-1.90;99.90
74822;DHT22;63353;48.702;8.884;2023-04-06T06:10:10;-1.80;99.90
74822;DHT22;63353;48.702;8.884;2023-04-06T06:12:39;-1.70;99.90
74822;DHT22;63353;48.702;8.884;2023-04-06T06:15:05;-1.60;99.90
74822;DHT22;63353;48.702;8.884;2023-04-06T06:17:37;-1.40;99.90
74822;DHT22;63353;48.702;8.884;2023-04-06T06:20:05;-1.30;99.90
74822;DHT22;63353;48.702;8.884;2023-04-06T06:22:34;-1.20;99.90
74822;DHT22;63353;48.702;8.884;2023-04-06T06:25:00;-1.00;99.90
74822;DHT22;63353;48.702;8.884;2023-04-06T06:27:26;-0.80;99.90
74822;DHT22;63353;48.702;8.884;2023-04-06T06:29:51;-0.70;99.90
74822;DHT22;63353;48.702;8.884;2023-04-06T06:32:17;-0.60;99.90
74822;DHT22;63353;48.702;8.884;2023-04-06T06:34:43;-0.30;99.90
74822;DHT22;63353;48.702;8.884;2023-04-06T06:37:09;-0.20;99.90
74822;DHT22;63353;48.702;8.884;2023-04-06T06:39:39;0.00;99.90
74822;DHT22;63353;48.702;8.884;2023-04-06T06:42:05;0.30;99.90
74822;DHT22;63353;48.702;8.884;2023-04-06T06:44:31;0.50;99.90
74822;DHT22;63353;48.702;8.884;2023-04-06T06:47:00;0.70;99.90
74822;DHT22;63353;48.702;8.884;2023-04-06T06:49:31;1.00;99.90
74822;DHT22;63353;48.702;8.884;2023-04-06T06:51:57;1.20;99.90
74822;DHT22;63353;48.702;8.884;2023-04-06T06:54:22;1.40;99.90
74822;DHT22;63353;48.702;8.884;2023-04-06T06:56:48;1.60;99.90
74822;DHT22;63353;48.702;8.884;2023-04-06T06:59:17;1.90;99.90
74822;DHT22;63353;48.702;8.884;2023-04-06T07:01:43;2.20;99.90
74822;DHT22;63353;48.702;8.884;2023-04-06T07:04:15;2.50;99.90
74822;DHT22;63353;48.702;8.884;2023-04-06T07:06:41;2.80;99.90
74822;DHT22;63353;48.702;8.884;2023-04-06T07:09:06;3.10;99.90
74822;DHT22;63353;48.702;8.884;2023-04-06T07:11:32;3.30;99.90
74822;DHT22;63353;48.702;8.884;2023-04-06T07:14:04;3.50;99.90
74822;DHT22;63353;48.702;8.884;2023-04-06T07:16:30;3.70;99.90
74822;DHT22;63353;48.702;8.884;2023-04-06T07:18:58;3.90;99.90
74822;DHT22;63353;48.702;8.884;2023-04-06T07:21:24;4.00;99.90
74822;DHT22;63353;48.702;8.884;2023-04-06T07:23:50;4.30;99.90
74822;DHT22;63353;48.702;8.884;2023-04-06T07:26:16;4.50;99.90
74822;DHT22;63353;48.702;8.884;2023-04-06T07:29:00;4.70;99.90
74822;DHT22;63353;48.702;8.884;2023-04-06T07:31:41;4.90;99.90
74822;DHT22;63353;48.702;8.884;2023-04-06T07:34:06;5.20;99.90
74822;DHT22;63353;48.702;8.884;2023-04-06T07:36:32;5.40;99.90
74822;DHT22;63353;48.702;8.884;2023-04-06T07:39:01;5.60;99.90
74822;DHT22;63353;48.702;8.884;2023-04-06T07:41:32;5.80;99.90
74822;DHT22;63353;48.702;8.884;2023-04-06T07:43:58;6.00;99.90
74822;DHT22;63353;48.702;8.884;2023-04-06T07:46:24;6.10;99.90
74822;DHT22;63353;48.702;8.884;2023-04-06T07:48:53;6.20;99.90
74822;DHT22;63353;48.702;8.884;2023-04-06T07:51:37;6.50;99.90
74822;DHT22;63353;48.702;8.884;2023-04-06T07:54:03;6.80;99.90
74822;DHT22;63353;48.702;8.884;2023-04-06T07:56:48;7.00;99.90
74822;DHT22;63353;48.702;8.884;2023-04-06T07:59:19;7.20;99.90
74822;DHT22;63353;48.702;8.884;2023-04-06T08:01:48;7.50;99.90
74822;DHT22;63353;48.702;8.884;2023-04-06T08:04:20;7.80;99.90
74822;DHT22;63353;48.702;8.884;2023-04-06T08:06:57;8.00;99.90
74822;DHT22;63353;48.702;8.884;2023-04-06T08:09:32;8.30;99.90
74822;DHT22;63353;48.702;8.884;2023-04-06T08:11:58;8.40;99.90
74822;DHT22;63353;48.702;8.884;2023-04-06T08:14:42;8.70;99.90
74822;DHT22;63353;48.702;8.884;2023-04-06T08:17:10;8.80;99.90
74822;DHT22;63353;48.702;8.884;2023-04-06T08:19:42;9.10;99.90
74822;DHT22;63353;48.702;8.884;2023-04-06T08:22:21;9.30;99.90
74822;DHT22;63353;48.702;8.884;2023-04-06T08:24:50;9.50;99.90
74822;DHT22;63353;48.702;8.884;2023-04-06T08:27:31;9.80;99.90
74822;DHT22;63353;48.702;8.884;2023-04-06T08:29:57;9.70;99.90
74822;DHT22;63353;48.702;8.884;2023-04-06T08:32:31;9.70;99.90
74822;DHT22;63353;48.702;8.884;2023-04-06T08:35:01;9.60;99.90
74822;DHT22;63353;48.702;8.884;2023-04-06T08:37:29;9.90;99.90
74822;DHT22;63353;48.702;8.884;2023-04-06T08:39:55;10.10;99.90
74822;DHT22;63353;48.702;8.884;2023-04-06T08:42:22;10.30;99.90
74822;DHT22;63353;48.702;8.884;2023-04-06T08:44:50;10.50;99.90
74822;DHT22;63353;48.702;8.884;2023-04-06T08:47:36;10.80;99.90
74822;DHT22;63353;48.702;8.884;2023-04-06T08:50:06;11.00;99.90
74822;DHT22;63353;48.702;8.884;2023-04-06T08:52:33;11.20;99.50
74822;DHT22;63353;48.702;8.884;2023-04-06T08:55:08;11.30;99.90
74822;DHT22;63353;48.702;8.884;2023-04-06T08:57:49;11.30;98.70
74822;DHT22;63353;48.702;8.884;2023-04-06T09:00:18;11.20;94.60
74822;DHT22;63353;48.702;8.884;2023-04-06T09:02:46;11.40;98.20
74822;DHT22;63353;48.702;8.884;2023-04-06T09:05:18;11.20;95.90
74822;DHT22;63353;48.702;8.884;2023-04-06T09:07:47;10.90;92.20
74822;DHT22;63353;48.702;8.884;2023-04-06T09:10:25;11.20;97.00
74822;DHT22;63353;48.702;8.884;2023-04-06T09:12:51;11.50;91.60
74822;DHT22;63353;48.702;8.884;2023-04-06T09:15:27;11.50;82.10
74822;DHT22;63353;48.702;8.884;2023-04-06T09:17:53;11.50;82.70
74822;DHT22;63353;48.702;8.884;2023-04-06T09:20:24;11.60;79.40
74822;DHT22;63353;48.702;8.884;2023-04-06T09:22:54;11.80;86.20
74822;DHT22;63353;48.702;8.884;2023-04-06T09:25:22;11.90;82.70
74822;DHT22;63353;48.702;8.884;2023-04-06T09:27:57;11.50;90.30
74822;DHT22;63353;48.702;8.884;2023-04-06T09:30:24;12.00;81.00
74822;DHT22;63353;48.702;8.884;2023-04-06T09:32:52;12.30;81.00
74822;DHT22;63353;48.702;8.884;2023-04-06T09:35:24;12.50;84.20
74822;DHT22;63353;48.702;8.884;2023-04-06T09:37:54;12.70;81.80
74822;DHT22;63353;48.702;8.884;2023-04-06T09:40:24;12.50;76.70
74822;DHT22;63353;48.702;8.884;2023-04-06T09:42:50;12.40;70.10
74822;DHT22;63353;48.702;8.884;2023-04-06T09:45:20;12.50;85.70
74822;DHT22;63353;48.702;8.884;2023-04-06T09:47:49;12.90;88.00
74822;DHT22;63353;48.702;8.884;2023-04-06T09:50:32;13.00;77.40
74822;DHT22;63353;48.702;8.884;2023-04-06T09:53:05;12.90;73.00
74822;DHT22;63353;48.702;8.884;2023-04-06T09:55:45;12.20;67.40
74822;DHT22;63353;48.702;8.884;2023-04-06T09:58:23;12.30;77.70
74822;DHT22;63353;48.702;8.884;2023-04-06T10:01:17;12.70;83.40
74822;DHT22;63353;48.702;8.884;2023-04-06T10:03:56;13.10;74.90
74822;DHT22;63353;48.702;8.884;2023-04-06T10:06:35;13.60;76.00
74822;DHT22;63353;48.702;8.884;2023-04-06T10:09:04;13.30;70.30
74822;DHT22;63353;48.702;8.884;2023-04-06T10:11:33;13.40;73.80
74822;DHT22;63353;48.702;8.884;2023-04-06T10:14:03;13.80;65.80
74822;DHT22;63353;48.702;8.884;2023-04-06T10:16:50;13.70;67.10
74822;DHT22;63353;48.702;8.884;2023-04-06T10:19:23;13.40;73.00
74822;DHT22;63353;48.702;8.884;2023-04-06T10:21:52;13.30;73.60
74822;DHT22;63353;48.702;8.884;2023-04-06T10:24:44;13.50;75.10
74822;DHT22;63353;48.702;8.884;2023-04-06T10:27:27;13.80;74.00
74822;DHT22;63353;48.702;8.884;2023-04-06T10:30:18;13.60;65.30
74822;DHT22;63353;48.702;8.884;2023-04-06T10:32:50;14.00;63.60
74822;DHT22;63353;48.702;8.884;2023-04-06T10:35:50;14.10;72.70
74822;DHT22;63353;48.702;8.884;2023-04-06T10:38:35;14.00;64.10
74822;DHT22;63353;48.702;8.884;2023-04-06T10:41:10;14.10;66.00
74822;DHT22;63353;48.702;8.884;2023-04-06T10:43:37;13.70;62.10
74822;DHT22;63353;48.702;8.884;2023-04-06T10:46:05;13.00;62.40
74822;DHT22;63353;48.702;8.884;2023-04-06T10:48:37;12.60;62.80
74822;DHT22;63353;48.702;8.884;2023-04-06T10:51:08;12.70;76.10
74822;DHT22;63353;48.702;8.884;2023-04-06T10:53:35;13.20;67.60
74822;DHT22;63353;48.702;8.884;2023-04-06T10:56:04;13.60;66.10
74822;DHT22;63353;48.702;8.884;2023-04-06T10:58:30;13.60;63.00
74822;DHT22;63353;48.702;8.884;2023-04-06T11:00:59;13.40;68.80
74822;DHT22;63353;48.702;8.884;2023-04-06T11:03:44;13.40;61.50
74822;DHT22;63353;48.702;8.884;2023-04-06T11:06:24;13.30;66.90
74822;DHT22;63353;48.702;8.884;2023-04-06T11:08:59;13.40;63.30
74822;DHT22;63353;48.702;8.884;2023-04-06T11:11:39;12.90;69.60
74822;DHT22;63353;48.702;8.884;2023-04-06T11:14:05;13.30;66.40
74822;DHT22;63353;48.702;8.884;2023-04-06T11:16:31;13.90;71.10
74822;DHT22;63353;48.702;8.884;2023-04-06T11:19:05;14.00;65.30
74822;DHT22;63353;48.702;8.884;2023-04-06T11:21:53;13.70;67.20
74822;DHT22;63353;48.702;8.884;2023-04-06T11:24:25;13.70;62.80
74822;DHT22;63353;48.702;8.884;2023-04-06T11:26:55;13.30;64.10
74822;DHT22;63353;48.702;8.884;2023-04-06T11:29:23;13.70;62.50
74822;DHT22;63353;48.702;8.884;2023-04-06T11:32:19;13.40;65.80
74822;DHT22;63353;48.702;8.884;2023-04-06T11:34:39;13.20;65.90
74822;DHT22;63353;48.702;8.884;2023-04-06T11:37:15;14.00;70.00
74822;DHT22;63353;48.702;8.884;2023-04-06T11:42:30;15.00;62.10
74822;DHT22;63353;48.702;8.884;2023-04-06T11:44:59;15.30;62.50
74822;DHT22;63353;48.702;8.884;2023-04-06T11:47:37;15.60;59.00
74822;DHT22;63353;48.702;8.884;2023-04-06T11:50:21;16.00;56.10
74822;DHT22;63353;48.702;8.884;2023-04-06T11:52:59;16.20;64.80
74822;DHT22;63353;48.702;8.884;2023-04-06T11:55:37;16.40;65.20
74822;DHT22;63353;48.702;8.884;2023-04-06T11:58:02;15.90;59.40
74822;DHT22;63353;48.702;8.884;2023-04-06T12:00:28;15.80;65.50
74822;DHT22;63353;48.702;8.884;2023-04-06T12:03:02;15.60;61.70
74822;DHT22;63353;48.702;8.884;2023-04-06T12:05:34;15.30;60.40
74822;DHT22;63353;48.702;8.884;2023-04-06T12:08:00;15.40;64.60
74822;DHT22;63353;48.702;8.884;2023-04-06T12:10:32;15.60;64.20
74822;DHT22;63353;48.702;8.884;2023-04-06T12:13:00;15.70;59.70
74822;DHT22;63353;48.702;8.884;2023-04-06T12:15:35;16.00;57.00
74822;DHT22;63353;48.702;8.884;2023-04-06T12:18:04;15.60;55.60
74822;DHT22;63353;48.702;8.884;2023-04-06T12:20:35;14.80;55.90
74822;DHT22;63353;48.702;8.884;2023-04-06T12:23:04;13.80;65.10
74822;DHT22;63353;48.702;8.884;2023-04-06T12:25:32;14.80;74.00
74822;DHT22;63353;48.702;8.884;2023-04-06T12:27:58;15.70;62.30
74822;DHT22;63353;48.702;8.884;2023-04-06T12:30:24;16.10;56.30
74822;DHT22;63353;48.702;8.884;2023-04-06T12:32:58;16.40;57.00
74822;DHT22;63353;48.702;8.884;2023-04-06T12:35:33;15.70;54.40
74822;DHT22;63353;48.702;8.884;2023-04-06T12:38:02;15.00;56.20
74822;DHT22;63353;48.702;8.884;2023-04-06T12:40:30;15.70;61.80
74822;DHT22;63353;48.702;8.884;2023-04-06T12:43:01;16.30;62.40
74822;DHT22;63353;48.702;8.884;2023-04-06T12:45:32;16.80;67.70
74822;DHT22;63353;48.702;8.884;2023-04-06T12:48:01;17.60;62.80
74822;DHT22;63353;48.702;8.884;2023-04-06T12:50:36;18.20;59.80
74822;DHT22;63353;48.702;8.884;2023-04-06T12:53:02;18.00;56.70
74822;DHT22;63353;48.702;8.884;2023-04-06T12:55:29;18.10;60.30
74822;DHT22;63353;48.702;8.884;2023-04-06T12:57:58;18.20;53.60
74822;DHT22;63353;48.702;8.884;2023-04-06T13:00:26;18.10;56.80
74822;DHT22;63353;48.702;8.884;2023-04-06T13:02:55;18.30;57.60
74822;DHT22;63353;48.702;8.884;2023-04-06T13:05:21;17.30;58.70
74822;DHT22;63353;48.702;8.884;2023-04-06T13:07:53;17.60;56.70
74822;DHT22;63353;48.702;8.884;2023-04-06T13:10:19;18.00;59.20
74822;DHT22;63353;48.702;8.884;2023-04-06T13:12:47;18.00;54.60
74822;DHT22;63353;48.702;8.884;2023-04-06T13:15:19;18.00;61.90
74822;DHT22;63353;48.702;8.884;2023-04-06T13:17:50;18.40;61.30
74822;DHT22;63353;48.702;8.884;2023-04-06T13:20:16;18.70;57.50
74822;DHT22;63353;48.702;8.884;2023-04-06T13:22:42;19.10;52.10
74822;DHT22;63353;48.702;8.884;2023-04-06T13:25:11;19.20;57.30
74822;DHT22;63353;48.702;8.884;2023-04-06T13:27:43;19.10;53.50
74822;DHT22;63353;48.702;8.884;2023-04-06T13:30:23;19.40;56.00
74822;DHT22;63353;48.702;8.884;2023-04-06T13:32:56;19.60;60.10
74822;DHT22;63353;48.702;8.884;2023-04-06T13:35:22;19.30;57.30
74822;DHT22;63353;48.702;8.884;2023-04-06T13:37:48;19.60;54.50
74822;DHT22;63353;48.702;8.884;2023-04-06T13:40:14;19.60;50.30
74822;DHT22;63353;48.702;8.884;2023-04-06T13:42:40;19.60;54.60
74822;DHT22;63353;48.702;8.884;2023-04-06T13:45:07;19.60;57.20
74822;DHT22;63353;48.702;8.884;2023-04-06T13:47:33;19.20;52.20
74822;DHT22;63353;48.702;8.884;2023-04-06T13:50:02;19.20;54.70
74822;DHT22;63353;48.702;8.884;2023-04-06T13:52:44;19.90;55.00
74822;DHT22;63353;48.702;8.884;2023-04-06T13:55:27;19.50;49.40
74822;DHT22;63353;48.702;8.884;2023-04-06T13:57:59;18.30;52.40
74822;DHT22;63353;48.702;8.884;2023-04-06T14:00:31;17.80;57.50
74822;DHT22;63353;48.702;8.884;2023-04-06T14:02:56;18.40;53.10
74822;DHT22;63353;48.702;8.884;2023-04-06T14:05:22;18.00;53.10
74822;DHT22;63353;48.702;8.884;2023-04-06T14:07:49;17.80;54.90
74822;DHT22;63353;48.702;8.884;2023-04-06T14:10:15;16.80;56.30
74822;DHT22;63353;48.702;8.884;2023-04-06T14:12:42;16.90;53.70
74822;DHT22;63353;48.702;8.884;2023-04-06T14:15:09;17.10;53.30
74822;DHT22;63353;48.702;8.884;2023-04-06T14:17:34;16.50;54.20
74822;DHT22;63353;48.702;8.884;2023-04-06T14:20:05;16.10;54.60
74822;DHT22;63353;48.702;8.884;2023-04-06T14:22:31;16.20;56.60
74822;DHT22;63353;48.702;8.884;2023-04-06T14:25:03;16.00;56.00
74822;DHT22;63353;48.702;8.884;2023-04-06T14:27:32;15.80;54.40
74822;DHT22;63353;48.702;8.884;2023-04-06T14:29:57;15.30;56.90
74822;DHT22;63353;48.702;8.884;2023-04-06T14:32:23;14.90;56.80
74822;DHT22;63353;48.702;8.884;2023-04-06T14:34:50;14.10;58.30
74822;DHT22;63353;48.702;8.884;2023-04-06T14:37:18;13.40;59.80
74822;DHT22;63353;48.702;8.884;2023-04-06T14:39:44;13.20;62.70
74822;DHT22;63353;48.702;8.884;2023-04-06T14:42:10;13.60;63.90
74822;DHT22;63353;48.702;8.884;2023-04-06T14:44:38;13.70;60.00
74822;DHT22;63353;48.702;8.884;2023-04-06T14:47:08;13.50;60.70
74822;DHT22;63353;48.702;8.884;2023-04-06T14:49:41;13.50;61.20
74822;DHT22;63353;48.702;8.884;2023-04-06T14:52:24;13.70;62.30
74822;DHT22;63353;48.702;8.884;2023-04-06T14:54:59;13.80;63.30
74822;DHT22;63353;48.702;8.884;2023-04-06T14:57:34;13.70;64.40
74822;DHT22;63353;48.702;8.884;2023-04-06T15:00:02;13.60;65.10
74822;DHT22;63353;48.702;8.884;2023-04-06T15:02:34;13.60;61.70
74822;DHT22;63353;48.702;8.884;2023-04-06T15:05:06;13.60;65.80
74822;DHT22;63353;48.702;8.884;2023-04-06T15:07:35;13.50;65.00
74822;DHT22;63353;48.702;8.884;2023-04-06T15:10:10;13.00;62.40
74822;DHT22;63353;48.702;8.884;2023-04-06T15:12:36;12.70;62.30
74822;DHT22;63353;48.702;8.884;2023-04-06T15:15:05;13.00;65.60
74822;DHT22;63353;48.702;8.884;2023-04-06T15:17:33;12.90;66.20
74822;DHT22;63353;48.702;8.884;2023-04-06T15:20:02;13.20;68.80
74822;DHT22;63353;48.702;8.884;2023-04-06T15:22:33;13.00;68.40
74822;DHT22;63353;48.702;8.884;2023-04-06T15:24:59;12.90;65.00
74822;DHT22;63353;48.702;8.884;2023-04-06T15:27:46;12.90;67.30
74822;DHT22;63353;48.702;8.884;2023-04-06T15:30:30;12.90;67.00
74822;DHT22;63353;48.702;8.884;2023-04-06T15:33:03;12.60;67.90
74822;DHT22;63353;48.702;8.884;2023-04-06T15:35:42;12.60;68.00
74822;DHT22;63353;48.702;8.884;2023-04-06T15:38:09;12.70;66.90
74822;DHT22;63353;48.702;8.884;2023-04-06T15:40:44;12.70;68.10
74822;DHT22;63353;48.702;8.884;2023-04-06T15:43:19;12.90;67.60
74822;DHT22;63353;48.702;8.884;2023-04-06T15:46:03;13.00;68.50
74822;DHT22;63353;48.702;8.884;2023-04-06T15:48:31;13.00;70.80
74822;DHT22;63353;48.702;8.884;2023-04-06T15:50:59;13.00;70.80
74822;DHT22;63353;48.702;8.884;2023-04-06T15:53:32;13.00;69.30
74822;DHT22;63353;48.702;8.884;2023-04-06T15:56:05;13.00;71.30
74822;DHT22;63353;48.702;8.884;2023-04-06T15:58:36;12.80;71.90
74822;DHT22;63353;48.702;8.884;2023-04-06T16:01:11;12.40;67.60